createdAt,value
2022-10-18T00:02:17.102Z,80.38
2022-10-18T00:04:43.704Z,80.43
2022-10-18T00:07:10.398Z,80.78
2022-10-18T00:09:37.650Z,80.70
2022-10-18T00:12:06.535Z,80.70
2022-10-18T00:14:33.156Z,80.63
2022-10-18T00:16:59.856Z,80.66
2022-10-18T00:19:29.182Z,80.66
2022-10-18T00:21:56.323Z,80.86
2022-10-18T00:24:23.000Z,80.92
2022-10-18T00:26:49.619Z,80.95
2022-10-18T00:29:17.189Z,80.93
2022-10-18T00:31:44.387Z,81.04
2022-10-18T00:34:16.254Z,81.07
2022-10-18T00:36:44.041Z,81.00
2022-10-18T00:39:17.928Z,80.87
2022-10-18T00:41:44.827Z,80.80
2022-10-18T00:44:11.383Z,80.78
2022-10-18T00:46:43.112Z,80.92
2022-10-18T00:49:16.745Z,80.92
2022-10-18T00:52:05.368Z,80.83
2022-10-18T00:54:36.004Z,81.02
2022-10-18T00:57:02.815Z,80.96
2022-10-18T00:59:29.556Z,80.92
2022-10-18T01:01:56.295Z,81.02
2022-10-18T01:04:23.381Z,80.74
2022-10-18T01:07:15.418Z,80.55
2022-10-18T01:10:16.266Z,80.36
2022-10-18T01:12:57.543Z,80.46
2022-10-18T01:15:26.395Z,80.35
2022-10-18T01:18:02.005Z,80.06
2022-10-18T01:20:58.747Z,79.90
2022-10-18T01:23:31.504Z,79.68
2022-10-18T01:26:26.951Z,79.64
2022-10-18T01:29:02.820Z,79.53
2022-10-18T01:31:59.652Z,79.64
2022-10-18T01:34:28.157Z,79.75
2022-10-18T01:36:55.857Z,79.75
2022-10-18T01:39:29.036Z,79.56
2022-10-18T01:41:57.215Z,79.52
2022-10-18T01:44:26.403Z,79.48
2022-10-18T01:46:55.212Z,79.52
2022-10-18T01:49:22.038Z,79.37
2022-10-18T01:51:48.715Z,79.26
2022-10-18T01:54:19.633Z,79.22
2022-10-18T01:59:48.609Z,79.14
2022-10-18T02:02:32.257Z,79.13
2022-10-18T02:04:59.151Z,78.77
2022-10-18T02:07:31.574Z,78.70
2022-10-18T02:13:02.574Z,78.55
2022-10-18T02:15:39.603Z,78.35
2022-10-18T02:18:09.701Z,77.92
2022-10-18T02:20:36.837Z,78.26
2022-10-18T02:23:05.603Z,78.25
2022-10-18T02:25:34.336Z,78.33
2022-10-18T02:28:01.992Z,78.19
2022-10-18T02:30:52.086Z,78.37
2022-10-18T02:33:34.494Z,78.58
2022-10-18T02:36:05.655Z,78.82
2022-10-18T02:38:32.505Z,79.12
2022-10-18T02:40:59.421Z,79.08
2022-10-18T02:43:26.774Z,78.98
2022-10-18T02:45:53.548Z,78.64
2022-10-18T02:48:20.216Z,78.76
2022-10-18T02:50:46.831Z,78.84
2022-10-18T02:53:13.427Z,78.98
2022-10-18T02:55:40.095Z,78.93
2022-10-18T02:58:06.865Z,78.95
2022-10-18T03:00:33.486Z,78.86
2022-10-18T03:03:00.135Z,78.68
2022-10-18T03:05:26.745Z,78.33
2022-10-18T03:07:53.417Z,77.75
2022-10-18T03:10:20.032Z,77.82
2022-10-18T03:12:46.644Z,78.10
2022-10-18T03:15:13.315Z,78.23
2022-10-18T03:17:39.985Z,78.41
2022-10-18T03:20:07.170Z,78.27
2022-10-18T03:22:33.840Z,78.29
2022-10-18T03:25:00.636Z,78.06
2022-10-18T03:27:27.261Z,78.27
2022-10-18T03:29:53.862Z,78.13
2022-10-18T03:32:20.567Z,78.23
2022-10-18T03:34:47.261Z,77.82
2022-10-18T03:37:13.900Z,77.77
2022-10-18T03:39:40.489Z,77.88
2022-10-18T03:42:07.214Z,77.84
2022-10-18T03:44:33.885Z,77.63
2022-10-18T03:47:00.561Z,77.78
2022-10-18T03:49:27.224Z,77.70
2022-10-18T03:51:53.939Z,77.92
2022-10-18T03:54:20.548Z,77.95
2022-10-18T03:56:47.337Z,78.06
2022-10-18T03:59:14.263Z,78.20
2022-10-18T04:01:40.944Z,78.15
2022-10-18T04:04:07.789Z,77.95
2022-10-18T04:06:34.532Z,77.73
2022-10-18T04:09:02.354Z,77.96
2022-10-18T04:11:31.136Z,78.06
2022-10-18T04:13:57.817Z,78.25
2022-10-18T04:16:24.726Z,78.25
2022-10-18T04:18:51.352Z,78.42
2022-10-18T04:21:18.134Z,78.33
2022-10-18T04:23:47.941Z,78.49
2022-10-18T04:26:16.570Z,78.20
2022-10-18T04:28:44.058Z,77.76
2022-10-18T04:31:11.395Z,77.73
2022-10-18T04:33:38.774Z,77.99
2022-10-18T04:36:05.523Z,77.80
2022-10-18T04:38:32.164Z,77.72
2022-10-18T04:40:58.854Z,77.79
2022-10-18T04:43:25.601Z,77.89
2022-10-18T04:45:52.356Z,77.71
2022-10-18T04:48:19.180Z,77.67
2022-10-18T04:50:48.868Z,77.47
2022-10-18T04:53:16.558Z,77.13
2022-10-18T04:55:45.320Z,77.42
2022-10-18T04:58:12.096Z,77.67
2022-10-18T05:00:40.082Z,77.62
2022-10-18T05:03:07.663Z,77.36
2022-10-18T05:05:49.709Z,77.32
2022-10-18T05:08:21.961Z,77.29
2022-10-18T05:10:48.607Z,77.54
2022-10-18T05:13:15.411Z,77.23
2022-10-18T05:15:42.568Z,77.27
2022-10-18T05:18:09.233Z,77.53
2022-10-18T05:20:35.906Z,77.62
2022-10-18T05:23:02.672Z,77.37
2022-10-18T05:25:29.349Z,77.17
2022-10-18T05:27:56.818Z,77.17
2022-10-18T05:30:23.509Z,77.17
2022-10-18T05:32:50.172Z,77.15
2022-10-18T05:35:16.932Z,77.36
2022-10-18T05:37:43.572Z,77.56
2022-10-18T05:40:10.983Z,77.54
2022-10-18T05:42:37.673Z,77.77
2022-10-18T05:45:04.527Z,77.58
2022-10-18T05:47:31.395Z,77.61
2022-10-18T05:49:58.129Z,77.72
2022-10-18T05:52:24.870Z,77.55
2022-10-18T05:54:52.335Z,77.63
2022-10-18T05:57:19.384Z,77.70
2022-10-18T05:59:46.264Z,77.69
2022-10-18T06:02:13.227Z,77.64
2022-10-18T06:04:39.944Z,77.60
2022-10-18T06:07:12.698Z,77.63
2022-10-18T06:09:39.332Z,77.81
2022-10-18T06:12:06.099Z,77.75
2022-10-18T06:14:32.948Z,78.15
2022-10-18T06:16:59.828Z,78.24
2022-10-18T06:19:26.959Z,78.24
2022-10-18T06:21:53.604Z,78.18
2022-10-18T06:24:21.671Z,78.27
2022-10-18T06:26:49.372Z,78.06
2022-10-18T06:29:16.070Z,78.18
2022-10-18T06:31:42.727Z,78.16
2022-10-18T06:34:09.651Z,78.28
2022-10-18T06:36:36.262Z,78.35
2022-10-18T06:39:03.027Z,78.08
2022-10-18T06:41:29.707Z,77.25
2022-10-18T06:44:07.299Z,76.91
2022-10-18T06:46:33.999Z,76.56
2022-10-18T06:49:00.704Z,76.39
2022-10-18T06:51:27.323Z,76.47
2022-10-18T06:54:06.218Z,76.29
2022-10-18T06:56:40.824Z,75.88
2022-10-18T06:59:07.519Z,75.62
2022-10-18T07:01:34.237Z,75.65
2022-10-18T07:04:00.957Z,75.42
2022-10-18T07:06:27.740Z,74.94
2022-10-18T07:08:54.810Z,74.70
2022-10-18T07:11:25.093Z,74.74
2022-10-18T07:13:54.518Z,74.70
2022-10-18T07:16:21.499Z,74.80
2022-10-18T07:18:49.978Z,74.80
2022-10-18T07:21:19.084Z,74.77
2022-10-18T07:23:46.483Z,74.93
2022-10-18T07:26:25.523Z,75.00
2022-10-18T07:28:55.370Z,75.07
2022-10-18T07:31:22.992Z,75.06
2022-10-18T07:33:49.672Z,75.17
2022-10-18T07:36:16.818Z,75.23
2022-10-18T07:38:44.667Z,75.31
2022-10-18T07:41:12.967Z,75.50
2022-10-18T07:43:47.699Z,75.54
2022-10-18T07:46:15.172Z,75.58
2022-10-18T07:48:42.106Z,75.71
2022-10-18T07:51:09.384Z,75.45
2022-10-18T07:53:36.369Z,75.42
2022-10-18T07:56:08.692Z,75.29
2022-10-18T07:58:36.626Z,75.25
2022-10-18T08:01:07.396Z,75.08
2022-10-18T08:03:35.252Z,75.11
2022-10-18T08:06:02.261Z,74.93
2022-10-18T08:08:29.264Z,74.57
2022-10-18T08:10:56.237Z,74.23
2022-10-18T08:13:22.924Z,74.17
2022-10-18T08:15:49.564Z,74.09
2022-10-18T08:18:16.221Z,73.46
2022-10-18T08:20:46.282Z,73.37
2022-10-18T08:23:13.049Z,72.79
2022-10-18T08:25:39.987Z,72.73
2022-10-18T08:28:07.381Z,72.80
2022-10-18T08:30:35.373Z,73.18
2022-10-18T08:33:02.970Z,73.53
2022-10-18T08:35:29.661Z,73.32
2022-10-18T08:37:56.231Z,73.36
2022-10-18T08:40:23.099Z,73.21
2022-10-18T08:43:01.896Z,70.51
2022-10-18T08:45:41.566Z,69.06
2022-10-18T08:48:18.038Z,68.67
2022-10-18T08:50:45.458Z,69.13
2022-10-18T08:53:17.676Z,69.36
2022-10-18T08:56:14.667Z,68.93
2022-10-18T08:58:44.045Z,68.26
2022-10-18T09:01:33.011Z,68.16
2022-10-18T09:04:23.969Z,67.49
2022-10-18T09:07:08.585Z,68.36
2022-10-18T09:10:03.174Z,67.39
2022-10-18T09:12:50.782Z,66.23
2022-10-18T09:15:23.324Z,66.58
2022-10-18T09:18:23.814Z,65.79
2022-10-18T09:21:00.086Z,65.79
2022-10-18T09:23:41.170Z,65.56
2022-10-18T09:26:15.447Z,66.65
2022-10-18T09:29:12.587Z,67.00
2022-10-18T09:32:16.772Z,67.32
2022-10-18T09:34:51.505Z,65.08
2022-10-18T09:37:20.142Z,64.59
2022-10-18T09:39:48.387Z,64.48
2022-10-18T09:42:26.667Z,64.78
2022-10-18T09:45:01.233Z,65.50
2022-10-18T09:47:34.058Z,65.77
2022-10-18T09:50:33.804Z,65.95
2022-10-18T09:53:25.921Z,66.43
2022-10-18T09:56:00.932Z,66.48
2022-10-18T09:58:44.130Z,65.71
2022-10-18T10:01:22.104Z,65.30
2022-10-18T10:03:48.744Z,65.69
2022-10-18T10:06:16.307Z,65.27
2022-10-18T10:08:45.116Z,65.61
2022-10-18T10:11:31.151Z,66.43
2022-10-18T10:14:07.838Z,66.83
2022-10-18T10:16:43.200Z,67.48
2022-10-18T10:19:17.557Z,67.71
2022-10-18T10:21:44.335Z,68.02
2022-10-18T10:24:21.611Z,67.20
2022-10-18T10:26:48.731Z,66.74
2022-10-18T10:30:05.805Z,67.44
2022-10-18T10:32:47.371Z,67.23
2022-10-18T10:35:42.233Z,67.04
2022-10-18T10:38:23.744Z,67.68
2022-10-18T10:40:50.919Z,67.51
2022-10-18T10:43:38.682Z,67.38
2022-10-18T10:46:15.034Z,67.71
2022-10-18T10:49:00.376Z,67.63
2022-10-18T10:51:39.528Z,67.98
2022-10-18T10:54:22.574Z,68.26
2022-10-18T10:57:04.045Z,67.69
2022-10-18T10:59:34.313Z,67.91
2022-10-18T11:02:19.283Z,67.40
2022-10-18T11:04:47.435Z,67.88
2022-10-18T11:07:33.626Z,66.58
2022-10-18T11:10:06.975Z,66.99
2022-10-18T11:12:36.838Z,67.81
2022-10-18T11:15:03.387Z,69.18
2022-10-18T11:17:35.822Z,69.18
2022-10-18T11:20:20.932Z,69.54
2022-10-18T11:22:56.426Z,69.44
2022-10-18T11:25:26.074Z,69.56
2022-10-18T11:28:04.331Z,68.63
2022-10-18T11:30:40.182Z,67.56
2022-10-18T11:33:18.621Z,66.53
2022-10-18T11:35:51.069Z,64.36
2022-10-18T11:38:36.329Z,63.20
2022-10-18T11:41:24.886Z,62.73
2022-10-18T11:44:03.628Z,62.20
2022-10-18T11:46:47.828Z,61.63
2022-10-18T11:49:41.752Z,60.42
2022-10-18T11:52:15.889Z,60.36
2022-10-18T11:54:52.530Z,60.58
2022-10-18T11:57:44.516Z,60.80
2022-10-18T12:00:39.637Z,60.51
2022-10-18T12:03:22.809Z,61.40
2022-10-18T12:05:50.440Z,62.88
2022-10-18T12:08:23.786Z,61.99
2022-10-18T12:11:07.934Z,61.82
2022-10-18T12:13:45.195Z,62.91
2022-10-18T12:16:12.417Z,63.31
2022-10-18T12:19:13.133Z,64.42
2022-10-18T12:21:40.738Z,63.54
2022-10-18T12:24:09.089Z,63.48
2022-10-18T12:26:36.386Z,63.56
2022-10-18T12:29:16.331Z,63.72
2022-10-18T12:31:48.645Z,63.26
2022-10-18T12:34:15.196Z,63.70
2022-10-18T12:37:15.677Z,63.82
2022-10-18T12:40:09.323Z,63.82
2022-10-18T12:42:44.501Z,63.75
2022-10-18T12:45:19.245Z,63.66
2022-10-18T12:47:45.831Z,63.72
2022-10-18T12:50:32.460Z,63.69
2022-10-18T12:53:03.686Z,64.10
2022-10-18T12:55:33.357Z,64.53
2022-10-18T12:58:01.211Z,64.41
2022-10-18T13:00:30.888Z,64.36
2022-10-18T13:03:16.511Z,64.03
2022-10-18T13:05:54.690Z,64.49
2022-10-18T13:08:28.242Z,63.82
2022-10-18T13:11:07.101Z,64.32
2022-10-18T13:13:58.499Z,65.11
2022-10-18T13:16:46.264Z,64.65
2022-10-18T13:19:31.317Z,65.16
2022-10-18T13:22:07.381Z,65.06
2022-10-18T13:24:44.079Z,65.72
2022-10-18T13:27:37.009Z,65.30
2022-10-18T13:30:40.092Z,64.52
2022-10-18T13:33:33.182Z,64.18
2022-10-18T13:36:02.340Z,63.80
2022-10-18T13:38:38.689Z,62.88
2022-10-18T13:41:11.633Z,62.73
2022-10-18T13:43:53.699Z,62.54
2022-10-18T13:46:33.390Z,62.86
2022-10-18T13:49:20.245Z,62.63
2022-10-18T13:52:14.521Z,63.85
2022-10-18T13:54:50.015Z,64.34
2022-10-18T13:57:53.772Z,64.26
2022-10-18T14:00:48.839Z,65.04
2022-10-18T14:03:55.712Z,65.73
2022-10-18T14:06:28.565Z,65.84
2022-10-18T14:09:09.534Z,66.75
2022-10-18T14:11:51.406Z,66.68
2022-10-18T14:14:46.507Z,67.01
2022-10-18T14:17:29.884Z,67.57
2022-10-18T14:20:40.094Z,67.65
2022-10-18T14:23:24.150Z,68.39
2022-10-18T14:25:50.800Z,68.41
2022-10-18T14:28:21.684Z,67.78
2022-10-18T14:31:00.171Z,68.51
2022-10-18T14:33:30.596Z,66.71
2022-10-18T14:36:04.273Z,66.13
2022-10-18T14:38:31.156Z,65.58
2022-10-18T14:41:13.041Z,65.28
2022-10-18T14:43:39.779Z,65.42
2022-10-18T14:46:27.243Z,64.55
2022-10-18T14:49:01.734Z,65.49
2022-10-18T14:51:29.340Z,65.31
2022-10-18T14:53:56.318Z,65.82
2022-10-18T14:56:28.138Z,66.85
2022-10-18T14:58:56.711Z,66.19
2022-10-18T15:01:26.319Z,65.93
2022-10-18T15:03:58.270Z,66.06
2022-10-18T15:06:28.180Z,66.47
2022-10-18T15:08:57.605Z,66.67
2022-10-18T15:11:36.111Z,66.92
2022-10-18T15:14:08.807Z,66.96
2022-10-18T15:16:38.444Z,66.85
2022-10-18T15:19:23.846Z,66.83
2022-10-18T15:25:17.146Z,67.06
2022-10-18T15:27:48.951Z,66.94
2022-10-18T15:30:25.001Z,67.40
2022-10-18T15:33:07.526Z,67.71
2022-10-18T15:35:36.719Z,67.69
2022-10-18T15:38:17.093Z,68.14
2022-10-18T15:40:44.038Z,68.17
2022-10-18T15:43:22.936Z,68.01
2022-10-18T15:45:52.324Z,68.03
2022-10-18T15:48:27.850Z,68.23
2022-10-18T15:51:02.101Z,68.65
2022-10-18T15:53:41.872Z,68.38
2022-10-18T15:56:37.667Z,68.48
2022-10-18T15:59:23.251Z,68.71
2022-10-18T16:01:57.914Z,69.16
2022-10-18T16:04:43.373Z,69.39
2022-10-18T16:07:12.251Z,69.77
2022-10-18T16:09:39.014Z,70.52
2022-10-18T16:12:05.628Z,70.31
2022-10-18T16:14:32.569Z,70.89
2022-10-18T16:17:01.082Z,70.49
2022-10-18T16:19:28.508Z,70.51
2022-10-18T16:21:55.590Z,70.06
2022-10-18T16:24:22.595Z,70.28
2022-10-18T16:26:49.789Z,70.08
2022-10-18T16:29:21.697Z,70.06
2022-10-18T16:31:48.396Z,70.64
2022-10-18T16:34:15.371Z,70.76
2022-10-18T16:36:41.981Z,70.82
2022-10-18T16:39:15.279Z,70.45
2022-10-18T16:41:42.025Z,69.89
2022-10-18T16:44:08.685Z,69.51
2022-10-18T16:46:35.467Z,69.71
2022-10-18T16:49:02.514Z,70.02
2022-10-18T16:51:29.365Z,70.39
2022-10-18T16:53:55.984Z,70.07
2022-10-18T16:56:26.796Z,69.73
2022-10-18T16:58:53.776Z,69.60
2022-10-18T17:01:21.989Z,69.77
2022-10-18T17:03:48.817Z,70.16
2022-10-18T17:06:26.683Z,70.80
2022-10-18T17:08:54.034Z,71.05
2022-10-18T17:11:21.893Z,71.29
2022-10-18T17:13:48.692Z,71.06
2022-10-18T17:16:33.473Z,70.72
2022-10-18T17:19:02.884Z,70.84
2022-10-18T17:21:30.132Z,70.89
2022-10-18T17:24:03.143Z,70.75
2022-10-18T17:26:30.745Z,70.66
2022-10-18T17:29:00.177Z,70.54
2022-10-18T17:31:27.786Z,70.75
2022-10-18T17:33:55.529Z,71.06
2022-10-18T17:36:22.505Z,71.04
2022-10-18T17:38:53.456Z,71.21
2022-10-18T17:41:20.665Z,71.77
2022-10-18T17:43:48.469Z,71.92
2022-10-18T17:46:16.011Z,72.48
2022-10-18T17:48:42.912Z,72.49
2022-10-18T17:51:15.392Z,72.56
2022-10-18T17:53:42.205Z,72.66
2022-10-18T17:56:10.361Z,72.65
2022-10-18T17:58:37.585Z,72.97
2022-10-18T18:01:23.204Z,73.14
2022-10-18T18:03:50.756Z,73.36
2022-10-18T18:06:22.726Z,73.70
2022-10-18T18:08:50.231Z,73.77
2022-10-18T18:11:17.818Z,73.83
2022-10-18T18:13:44.612Z,73.94
2022-10-18T18:16:17.412Z,74.24
2022-10-18T18:18:50.489Z,74.27
2022-10-18T18:21:20.954Z,74.45
2022-10-18T18:23:48.993Z,74.70
2022-10-18T18:26:17.415Z,74.68
2022-10-18T18:28:44.375Z,74.86
2022-10-18T18:31:19.470Z,74.94
2022-10-18T18:33:46.205Z,74.91
2022-10-18T18:36:13.124Z,75.25
2022-10-18T18:38:42.661Z,75.35
2022-10-18T18:41:16.718Z,75.48
2022-10-18T18:43:51.868Z,75.65
2022-10-18T18:46:18.829Z,75.65
2022-10-18T18:48:45.515Z,75.97
2022-10-18T18:51:14.887Z,76.04
2022-10-18T18:53:42.673Z,76.24
2022-10-18T18:56:12.737Z,76.35
2022-10-18T18:58:40.553Z,76.60
2022-10-18T19:01:09.053Z,76.41
2022-10-18T19:03:36.081Z,76.19
2022-10-18T19:06:07.535Z,76.24
2022-10-18T19:08:39.290Z,76.37
2022-10-18T19:11:09.186Z,76.37
2022-10-18T19:13:36.609Z,76.51
2022-10-18T19:16:24.448Z,76.57
2022-10-18T19:19:14.484Z,76.75
2022-10-18T19:21:58.461Z,76.70
2022-10-18T19:24:26.611Z,76.83
2022-10-18T19:26:57.962Z,76.93
2022-10-18T19:29:30.223Z,76.90
2022-10-18T19:31:58.794Z,76.96
2022-10-18T19:34:26.793Z,76.99
2022-10-18T19:36:53.417Z,77.02
2022-10-18T19:39:23.937Z,77.18
2022-10-18T19:41:53.211Z,77.33
2022-10-18T19:44:20.267Z,77.52
2022-10-18T19:46:47.240Z,77.51
2022-10-18T19:49:14.195Z,77.56
2022-10-18T19:51:40.983Z,77.56
2022-10-18T19:54:07.750Z,77.54
2022-10-18T19:56:34.447Z,77.62
2022-10-18T19:59:01.310Z,77.82
2022-10-18T20:01:29.161Z,77.77
2022-10-18T20:03:56.100Z,77.79
2022-10-18T20:06:22.903Z,77.78
2022-10-18T20:08:50.092Z,77.99
2022-10-18T20:11:19.533Z,78.13
2022-10-18T20:13:46.620Z,78.16
2022-10-18T20:16:14.540Z,78.39
2022-10-18T20:18:43.257Z,78.15
2022-10-18T20:21:11.893Z,78.14
2022-10-18T20:23:40.159Z,78.36
2022-10-18T20:26:17.991Z,78.31
2022-10-18T20:28:56.941Z,78.36
2022-10-18T20:31:31.762Z,78.37
2022-10-18T20:34:00.706Z,78.33
2022-10-18T20:36:29.025Z,78.25
2022-10-18T20:38:56.327Z,78.45
2022-10-18T20:41:36.481Z,78.35
2022-10-18T20:44:05.547Z,78.71
2022-10-18T20:46:34.278Z,78.56
2022-10-18T20:49:00.966Z,78.73
2022-10-18T20:51:28.088Z,78.67
2022-10-18T20:53:54.897Z,78.81
2022-10-18T20:56:27.192Z,79.13
2022-10-18T20:58:56.294Z,79.20
2022-10-18T21:01:25.394Z,79.28
2022-10-18T21:03:53.547Z,79.43
2022-10-18T21:06:32.288Z,79.28
2022-10-18T21:09:01.325Z,79.23
2022-10-18T21:11:29.008Z,79.36
2022-10-18T21:14:00.243Z,79.41
2022-10-18T21:16:27.338Z,79.36
2022-10-18T21:18:54.044Z,79.38
2022-10-18T21:21:23.171Z,79.64
2022-10-18T21:23:50.488Z,79.71
2022-10-18T21:26:20.229Z,79.85
2022-10-18T21:28:47.541Z,79.62
2022-10-18T21:31:17.917Z,79.77
2022-10-18T21:33:45.695Z,79.81
2022-10-18T21:36:12.697Z,79.80
2022-10-18T21:38:39.575Z,79.93
2022-10-18T21:41:10.823Z,79.91
2022-10-18T21:43:45.202Z,79.71
2022-10-18T21:46:12.736Z,79.77
2022-10-18T21:48:42.936Z,79.94
2022-10-18T21:51:10.176Z,79.94
2022-10-18T21:53:36.859Z,80.06
2022-10-18T21:56:10.624Z,80.08
2022-10-18T21:58:37.495Z,80.08
2022-10-18T22:01:12.310Z,80.01
2022-10-18T22:03:39.534Z,79.99
2022-10-18T22:06:13.325Z,80.03
2022-10-18T22:08:41.438Z,79.96
2022-10-18T22:11:08.994Z,79.70
2022-10-18T22:13:35.680Z,80.03
2022-10-18T22:16:04.999Z,79.98
2022-10-18T22:18:32.208Z,80.04
2022-10-18T22:21:01.415Z,80.01
2022-10-18T22:23:36.059Z,79.91
2022-10-18T22:26:07.789Z,79.74
2022-10-18T22:28:35.613Z,79.53
2022-10-18T22:31:02.508Z,79.72
2022-10-18T22:33:29.359Z,79.92
2022-10-18T22:35:55.997Z,80.09
2022-10-18T22:38:23.182Z,80.35
2022-10-18T22:40:50.271Z,80.18
2022-10-18T22:43:16.967Z,79.72
2022-10-18T22:45:43.731Z,80.02
2022-10-18T22:48:10.434Z,80.07
2022-10-18T22:50:37.088Z,80.17
2022-10-18T22:53:03.776Z,80.44
2022-10-18T22:55:30.487Z,80.10
2022-10-18T22:57:57.096Z,80.28
2022-10-18T23:00:23.745Z,80.31
2022-10-18T23:02:50.496Z,80.54
2022-10-18T23:05:17.236Z,80.21
2022-10-18T23:07:49.066Z,80.30
2022-10-18T23:10:15.811Z,80.44
2022-10-18T23:12:42.496Z,80.47
2022-10-18T23:15:09.602Z,80.54
2022-10-18T23:17:36.760Z,80.66
2022-10-18T23:20:04.608Z,80.64
2022-10-18T23:22:31.674Z,80.68
2022-10-18T23:24:58.473Z,80.54
2022-10-18T23:27:25.343Z,80.60
2022-10-18T23:29:51.995Z,80.46
2022-10-18T23:32:18.649Z,80.46
2022-10-18T23:34:45.264Z,80.25
2022-10-18T23:37:11.935Z,80.31
2022-10-18T23:39:38.661Z,80.13
2022-10-18T23:42:05.361Z,80.24
2022-10-18T23:44:32.030Z,80.13
2022-10-18T23:46:58.647Z,80.01
2022-10-18T23:49:25.293Z,79.81
2022-10-18T23:51:52.062Z,79.93
2022-10-18T23:54:18.680Z,80.12
2022-10-18T23:56:45.327Z,79.98
2022-10-18T23:59:11.981Z,80.09
